sensor_id;sensor_type;location;lat;lon;timestamp;P1;durP1;ratioP1;P2;durP2;ratioP2
37633;SDS011;32048;49.902;22.508;2023-09-19T00:00:22;10.52;;;7.05;;
37633;SDS011;32048;49.902;22.508;2023-09-19T00:03:12;12.05;;;7.80;;
37633;SDS011;32048;49.902;22.508;2023-09-19T00:05:40;12.30;;;7.82;;
37633;SDS011;32048;49.902;22.508;2023-09-19T00:08:12;11.23;;;7.35;;
37633;SDS011;32048;49.902;22.508;2023-09-19T00:10:42;11.02;;;8.48;;
37633;SDS011;32048;49.902;22.508;2023-09-19T00:13:10;10.20;;;8.03;;
37633;SDS011;32048;49.902;22.508;2023-09-19T00:15:45;11.32;;;8.50;;
37633;SDS011;32048;49.902;22.508;2023-09-19T00:18:18;14.20;;;8.55;;
37633;SDS011;32048;49.902;22.508;2023-09-19T00:20:48;12.25;;;7.97;;
37633;SDS011;32048;49.902;22.508;2023-09-19T00:23:16;11.57;;;8.05;;
37633;SDS011;32048;49.902;22.508;2023-09-19T00:25:43;16.08;;;8.60;;
37633;SDS011;32048;49.902;22.508;2023-09-19T00:28:12;11.93;;;8.30;;
37633;SDS011;32048;49.902;22.508;2023-09-19T00:30:42;11.45;;;8.73;;
37633;SDS011;32048;49.902;22.508;2023-09-19T00:33:10;12.38;;;8.25;;
37633;SDS011;32048;49.902;22.508;2023-09-19T00:35:49;13.02;;;9.68;;
37633;SDS011;32048;49.902;22.508;2023-09-19T00:38:21;13.02;;;7.93;;
37633;SDS011;32048;49.902;22.508;2023-09-19T00:40:51;12.02;;;8.93;;
37633;SDS011;32048;49.902;22.508;2023-09-19T00:43:18;13.95;;;8.50;;
37633;SDS011;32048;49.902;22.508;2023-09-19T00:45:51;10.90;;;7.43;;
37633;SDS011;32048;49.902;22.508;2023-09-19T00:48:20;9.32;;;7.63;;
37633;SDS011;32048;49.902;22.508;2023-09-19T00:50:50;11.02;;;8.07;;
37633;SDS011;32048;49.902;22.508;2023-09-19T00:53:18;10.43;;;8.23;;
37633;SDS011;32048;49.902;22.508;2023-09-19T00:55:47;12.20;;;7.93;;
37633;SDS011;32048;49.902;22.508;2023-09-19T00:58:16;11.10;;;8.45;;
37633;SDS011;32048;49.902;22.508;2023-09-19T01:00:45;11.77;;;8.48;;
37633;SDS011;32048;49.902;22.508;2023-09-19T01:03:14;10.98;;;8.80;;
37633;SDS011;32048;49.902;22.508;2023-09-19T01:05:41;11.73;;;7.97;;
37633;SDS011;32048;49.902;22.508;2023-09-19T01:08:09;11.93;;;8.18;;
37633;SDS011;32048;49.902;22.508;2023-09-19T01:10:42;10.93;;;7.82;;
37633;SDS011;32048;49.902;22.508;2023-09-19T01:13:22;10.80;;;7.88;;
37633;SDS011;32048;49.902;22.508;2023-09-19T01:16:03;10.63;;;7.45;;
37633;SDS011;32048;49.902;22.508;2023-09-19T01:18:43;11.23;;;8.60;;
37633;SDS011;32048;49.902;22.508;2023-09-19T01:24:10;15.45;;;8.40;;
37633;SDS011;32048;49.902;22.508;2023-09-19T01:30:10;11.88;;;8.45;;
37633;SDS011;32048;49.902;22.508;2023-09-19T01:32:40;13.40;;;8.70;;
37633;SDS011;32048;49.902;22.508;2023-09-19T01:37:39;14.52;;;8.45;;
37633;SDS011;32048;49.902;22.508;2023-09-19T01:40:12;11.45;;;8.52;;
37633;SDS011;32048;49.902;22.508;2023-09-19T01:42:45;12.48;;;8.48;;
37633;SDS011;32048;49.902;22.508;2023-09-19T01:51:07;12.15;;;8.70;;
37633;SDS011;32048;49.902;22.508;2023-09-19T01:53:45;12.23;;;8.18;;
37633;SDS011;32048;49.902;22.508;2023-09-19T01:56:33;11.20;;;8.10;;
37633;SDS011;32048;49.902;22.508;2023-09-19T01:59:10;12.13;;;7.65;;
37633;SDS011;32048;49.902;22.508;2023-09-19T02:01:40;11.07;;;7.78;;
37633;SDS011;32048;49.902;22.508;2023-09-19T02:04:11;10.23;;;8.20;;
37633;SDS011;32048;49.902;22.508;2023-09-19T02:06:42;10.63;;;8.13;;
37633;SDS011;32048;49.902;22.508;2023-09-19T02:09:09;11.43;;;8.15;;
37633;SDS011;32048;49.902;22.508;2023-09-19T02:11:36;12.40;;;8.65;;
37633;SDS011;32048;49.902;22.508;2023-09-19T02:14:03;10.38;;;7.63;;
37633;SDS011;32048;49.902;22.508;2023-09-19T02:16:35;13.23;;;8.10;;
37633;SDS011;32048;49.902;22.508;2023-09-19T02:19:02;11.05;;;8.15;;
37633;SDS011;32048;49.902;22.508;2023-09-19T02:21:32;11.07;;;8.77;;
37633;SDS011;32048;49.902;22.508;2023-09-19T02:23:59;12.23;;;7.90;;
37633;SDS011;32048;49.902;22.508;2023-09-19T02:26:27;15.93;;;7.95;;
37633;SDS011;32048;49.902;22.508;2023-09-19T02:28:54;13.40;;;8.63;;
37633;SDS011;32048;49.902;22.508;2023-09-19T02:31:21;12.43;;;8.30;;
37633;SDS011;32048;49.902;22.508;2023-09-19T02:33:48;11.02;;;8.18;;
37633;SDS011;32048;49.902;22.508;2023-09-19T02:36:15;11.23;;;8.73;;
37633;SDS011;32048;49.902;22.508;2023-09-19T02:38:44;10.10;;;8.10;;
37633;SDS011;32048;49.902;22.508;2023-09-19T02:41:11;10.18;;;8.30;;
37633;SDS011;32048;49.902;22.508;2023-09-19T02:43:38;13.40;;;8.65;;
37633;SDS011;32048;49.902;22.508;2023-09-19T02:46:06;11.68;;;8.25;;
37633;SDS011;32048;49.902;22.508;2023-09-19T02:48:33;13.43;;;8.73;;
37633;SDS011;32048;49.902;22.508;2023-09-19T02:53:30;13.30;;;8.63;;
37633;SDS011;32048;49.902;22.508;2023-09-19T02:55:58;12.10;;;7.95;;
37633;SDS011;32048;49.902;22.508;2023-09-19T02:58:25;16.20;;;7.85;;
37633;SDS011;32048;49.902;22.508;2023-09-19T03:00:54;11.77;;;7.80;;
37633;SDS011;32048;49.902;22.508;2023-09-19T03:03:22;14.82;;;7.47;;
37633;SDS011;32048;49.902;22.508;2023-09-19T03:05:50;10.80;;;7.93;;
37633;SDS011;32048;49.902;22.508;2023-09-19T03:08:20;11.23;;;8.02;;
37633;SDS011;32048;49.902;22.508;2023-09-19T03:10:48;11.43;;;8.05;;
37633;SDS011;32048;49.902;22.508;2023-09-19T03:13:15;10.95;;;7.80;;
37633;SDS011;32048;49.902;22.508;2023-09-19T03:15:43;11.40;;;7.93;;
37633;SDS011;32048;49.902;22.508;2023-09-19T03:20:40;15.88;;;7.53;;
37633;SDS011;32048;49.902;22.508;2023-09-19T03:23:07;10.40;;;7.13;;
37633;SDS011;32048;49.902;22.508;2023-09-19T03:25:35;11.38;;;7.72;;
37633;SDS011;32048;49.902;22.508;2023-09-19T03:47:47;8.75;;;6.80;;
37633;SDS011;32048;49.902;22.508;2023-09-19T03:50:14;9.35;;;6.40;;
37633;SDS011;32048;49.902;22.508;2023-09-19T03:52:44;11.15;;;6.93;;
37633;SDS011;32048;49.902;22.508;2023-09-19T03:55:12;10.82;;;6.30;;
37633;SDS011;32048;49.902;22.508;2023-09-19T03:57:39;8.00;;;6.30;;
37633;SDS011;32048;49.902;22.508;2023-09-19T04:00:06;10.18;;;6.97;;
37633;SDS011;32048;49.902;22.508;2023-09-19T04:02:39;14.35;;;6.40;;
37633;SDS011;32048;49.902;22.508;2023-09-19T04:05:07;11.07;;;6.20;;
37633;SDS011;32048;49.902;22.508;2023-09-19T04:07:34;9.20;;;6.10;;
37633;SDS011;32048;49.902;22.508;2023-09-19T04:10:01;9.52;;;6.90;;
37633;SDS011;32048;49.902;22.508;2023-09-19T04:12:29;9.32;;;6.93;;
37633;SDS011;32048;49.902;22.508;2023-09-19T04:14:57;10.77;;;6.75;;
37633;SDS011;32048;49.902;22.508;2023-09-19T04:17:24;10.40;;;7.20;;
37633;SDS011;32048;49.902;22.508;2023-09-19T04:19:51;8.15;;;6.43;;
37633;SDS011;32048;49.902;22.508;2023-09-19T04:22:18;11.02;;;7.10;;
37633;SDS011;32048;49.902;22.508;2023-09-19T04:24:45;9.98;;;6.82;;
37633;SDS011;32048;49.902;22.508;2023-09-19T04:27:12;9.90;;;7.28;;
37633;SDS011;32048;49.902;22.508;2023-09-19T04:29:42;9.35;;;7.13;;
37633;SDS011;32048;49.902;22.508;2023-09-19T04:32:09;9.60;;;7.60;;
37633;SDS011;32048;49.902;22.508;2023-09-19T04:34:36;12.75;;;7.57;;
37633;SDS011;32048;49.902;22.508;2023-09-19T04:37:05;8.02;;;7.22;;
37633;SDS011;32048;49.902;22.508;2023-09-19T04:39:32;11.90;;;7.97;;
37633;SDS011;32048;49.902;22.508;2023-09-19T04:42:00;13.93;;;7.40;;
37633;SDS011;32048;49.902;22.508;2023-09-19T04:44:28;10.68;;;7.63;;
37633;SDS011;32048;49.902;22.508;2023-09-19T04:46:54;9.85;;;7.63;;
37633;SDS011;32048;49.902;22.508;2023-09-19T04:49:22;8.80;;;7.40;;
37633;SDS011;32048;49.902;22.508;2023-09-19T04:51:49;9.88;;;7.45;;
37633;SDS011;32048;49.902;22.508;2023-09-19T04:54:17;9.98;;;7.75;;
37633;SDS011;32048;49.902;22.508;2023-09-19T04:56:44;13.07;;;8.55;;
37633;SDS011;32048;49.902;22.508;2023-09-19T04:59:12;14.18;;;8.85;;
37633;SDS011;32048;49.902;22.508;2023-09-19T05:01:39;10.90;;;8.25;;
37633;SDS011;32048;49.902;22.508;2023-09-19T05:04:06;12.60;;;8.82;;
37633;SDS011;32048;49.902;22.508;2023-09-19T05:06:33;13.60;;;9.77;;
37633;SDS011;32048;49.902;22.508;2023-09-19T05:09:01;15.48;;;10.73;;
37633;SDS011;32048;49.902;22.508;2023-09-19T05:11:31;13.32;;;9.65;;
37633;SDS011;32048;49.902;22.508;2023-09-19T05:27:10;14.50;;;10.98;;
37633;SDS011;32048;49.902;22.508;2023-09-19T05:29:37;12.85;;;9.98;;
37633;SDS011;32048;49.902;22.508;2023-09-19T05:32:04;12.88;;;10.38;;
37633;SDS011;32048;49.902;22.508;2023-09-19T05:34:32;13.97;;;10.20;;
37633;SDS011;32048;49.902;22.508;2023-09-19T05:36:59;13.13;;;9.45;;
37633;SDS011;32048;49.902;22.508;2023-09-19T05:39:27;12.05;;;9.70;;
37633;SDS011;32048;49.902;22.508;2023-09-19T05:41:53;17.77;;;10.30;;
37633;SDS011;32048;49.902;22.508;2023-09-19T05:44:21;11.20;;;9.35;;
37633;SDS011;32048;49.902;22.508;2023-09-19T05:46:48;10.63;;;9.50;;
37633;SDS011;32048;49.902;22.508;2023-09-19T05:49:16;12.98;;;9.07;;
37633;SDS011;32048;49.902;22.508;2023-09-19T05:51:44;13.30;;;9.27;;
37633;SDS011;32048;49.902;22.508;2023-09-19T05:54:12;11.97;;;9.67;;
37633;SDS011;32048;49.902;22.508;2023-09-19T05:56:39;15.20;;;10.40;;
37633;SDS011;32048;49.902;22.508;2023-09-19T05:59:07;22.85;;;13.68;;
37633;SDS011;32048;49.902;22.508;2023-09-19T06:01:35;16.48;;;10.82;;
37633;SDS011;32048;49.902;22.508;2023-09-19T06:04:03;39.80;;;20.15;;
37633;SDS011;32048;49.902;22.508;2023-09-19T06:06:31;80.18;;;33.88;;
37633;SDS011;32048;49.902;22.508;2023-09-19T06:11:27;23.90;;;14.50;;
37633;SDS011;32048;49.902;22.508;2023-09-19T06:13:56;21.67;;;14.80;;
37633;SDS011;32048;49.902;22.508;2023-09-19T06:16:23;23.13;;;14.50;;
37633;SDS011;32048;49.902;22.508;2023-09-19T06:18:50;13.27;;;10.07;;
37633;SDS011;32048;49.902;22.508;2023-09-19T06:21:19;16.23;;;10.68;;
37633;SDS011;32048;49.902;22.508;2023-09-19T06:23:46;10.55;;;9.38;;
37633;SDS011;32048;49.902;22.508;2023-09-19T06:26:13;11.05;;;8.77;;
37633;SDS011;32048;49.902;22.508;2023-09-19T06:28:40;10.30;;;8.77;;
37633;SDS011;32048;49.902;22.508;2023-09-19T06:31:09;9.82;;;8.38;;
37633;SDS011;32048;49.902;22.508;2023-09-19T06:33:37;20.38;;;11.88;;
37633;SDS011;32048;49.902;22.508;2023-09-19T06:38:33;19.10;;;10.43;;
37633;SDS011;32048;49.902;22.508;2023-09-19T06:41:02;10.55;;;8.70;;
37633;SDS011;32048;49.902;22.508;2023-09-19T06:43:35;10.43;;;8.05;;
37633;SDS011;32048;49.902;22.508;2023-09-19T06:46:02;9.70;;;7.15;;
37633;SDS011;32048;49.902;22.508;2023-09-19T06:48:30;9.47;;;7.87;;
37633;SDS011;32048;49.902;22.508;2023-09-19T06:50:58;9.18;;;7.50;;
37633;SDS011;32048;49.902;22.508;2023-09-19T06:53:32;8.65;;;6.68;;
37633;SDS011;32048;49.902;22.508;2023-09-19T06:56:01;11.82;;;7.38;;
37633;SDS011;32048;49.902;22.508;2023-09-19T06:58:29;9.45;;;6.80;;
37633;SDS011;32048;49.902;22.508;2023-09-19T07:00:56;13.20;;;8.82;;
37633;SDS011;32048;49.902;22.508;2023-09-19T07:03:23;8.80;;;7.53;;
37633;SDS011;32048;49.902;22.508;2023-09-19T07:05:53;11.13;;;6.47;;
37633;SDS011;32048;49.902;22.508;2023-09-19T07:08:22;10.80;;;8.70;;
37633;SDS011;32048;49.902;22.508;2023-09-19T07:10:49;10.00;;;6.93;;
37633;SDS011;32048;49.902;22.508;2023-09-19T07:13:19;8.48;;;6.20;;
37633;SDS011;32048;49.902;22.508;2023-09-19T07:15:46;6.60;;;5.40;;
37633;SDS011;32048;49.902;22.508;2023-09-19T07:18:14;6.05;;;5.10;;
37633;SDS011;32048;49.902;22.508;2023-09-19T07:20:44;8.43;;;6.25;;
37633;SDS011;32048;49.902;22.508;2023-09-19T07:23:18;7.25;;;5.85;;
37633;SDS011;32048;49.902;22.508;2023-09-19T07:25:45;8.25;;;6.22;;
37633;SDS011;32048;49.902;22.508;2023-09-19T07:28:13;8.55;;;6.22;;
37633;SDS011;32048;49.902;22.508;2023-09-19T07:30:40;7.18;;;6.45;;
37633;SDS011;32048;49.902;22.508;2023-09-19T07:33:08;11.10;;;6.15;;
37633;SDS011;32048;49.902;22.508;2023-09-19T07:35:38;7.10;;;5.95;;
37633;SDS011;32048;49.902;22.508;2023-09-19T07:38:08;7.40;;;5.80;;
37633;SDS011;32048;49.902;22.508;2023-09-19T07:40:38;7.35;;;5.40;;
37633;SDS011;32048;49.902;22.508;2023-09-19T07:43:06;7.65;;;5.68;;
37633;SDS011;32048;49.902;22.508;2023-09-19T07:45:34;8.30;;;5.95;;
37633;SDS011;32048;49.902;22.508;2023-09-19T07:48:01;8.73;;;6.57;;
37633;SDS011;32048;49.902;22.508;2023-09-19T07:50:31;6.15;;;5.55;;
37633;SDS011;32048;49.902;22.508;2023-09-19T07:55:27;7.43;;;6.63;;
37633;SDS011;32048;49.902;22.508;2023-09-19T07:57:54;7.47;;;6.05;;
37633;SDS011;32048;49.902;22.508;2023-09-19T08:00:21;7.63;;;6.20;;
37633;SDS011;32048;49.902;22.508;2023-09-19T08:02:48;9.25;;;6.60;;
37633;SDS011;32048;49.902;22.508;2023-09-19T08:05:27;15.77;;;6.37;;
37633;SDS011;32048;49.902;22.508;2023-09-19T08:20:50;9.63;;;6.95;;
37633;SDS011;32048;49.902;22.508;2023-09-19T08:23:19;12.93;;;7.30;;
37633;SDS011;32048;49.902;22.508;2023-09-19T08:25:47;8.07;;;7.28;;
37633;SDS011;32048;49.902;22.508;2023-09-19T08:28:15;7.68;;;6.80;;
37633;SDS011;32048;49.902;22.508;2023-09-19T08:30:45;9.63;;;7.07;;
37633;SDS011;32048;49.902;22.508;2023-09-19T08:33:13;10.32;;;7.10;;
37633;SDS011;32048;49.902;22.508;2023-09-19T08:35:42;9.18;;;7.00;;
37633;SDS011;32048;49.902;22.508;2023-09-19T08:38:09;9.48;;;6.93;;
37633;SDS011;32048;49.902;22.508;2023-09-19T08:40:37;8.07;;;7.18;;
37633;SDS011;32048;49.902;22.508;2023-09-19T08:43:07;9.57;;;7.05;;
37633;SDS011;32048;49.902;22.508;2023-09-19T08:45:34;9.18;;;7.00;;
37633;SDS011;32048;49.902;22.508;2023-09-19T08:50:33;8.20;;;7.30;;
37633;SDS011;32048;49.902;22.508;2023-09-19T08:53:14;10.75;;;8.23;;
37633;SDS011;32048;49.902;22.508;2023-09-19T08:55:47;9.48;;;7.45;;
37633;SDS011;32048;49.902;22.508;2023-09-19T08:58:18;11.10;;;8.07;;
37633;SDS011;32048;49.902;22.508;2023-09-19T09:00:51;12.77;;;7.93;;
37633;SDS011;32048;49.902;22.508;2023-09-19T09:03:20;10.77;;;7.93;;
37633;SDS011;32048;49.902;22.508;2023-09-19T09:05:49;8.85;;;7.95;;
37633;SDS011;32048;49.902;22.508;2023-09-19T09:08:18;8.93;;;7.65;;
37633;SDS011;32048;49.902;22.508;2023-09-19T09:10:48;12.27;;;8.20;;
37633;SDS011;32048;49.902;22.508;2023-09-19T09:13:17;9.13;;;7.65;;
37633;SDS011;32048;49.902;22.508;2023-09-19T09:15:44;9.68;;;7.85;;
37633;SDS011;32048;49.902;22.508;2023-09-19T09:18:11;9.60;;;8.10;;
37633;SDS011;32048;49.902;22.508;2023-09-19T09:20:39;11.57;;;8.60;;
37633;SDS011;32048;49.902;22.508;2023-09-19T09:23:07;10.43;;;8.05;;
37633;SDS011;32048;49.902;22.508;2023-09-19T09:25:50;10.45;;;7.53;;
37633;SDS011;32048;49.902;22.508;2023-09-19T09:28:23;9.15;;;7.30;;
37633;SDS011;32048;49.902;22.508;2023-09-19T09:33:18;9.88;;;7.53;;
37633;SDS011;32048;49.902;22.508;2023-09-19T09:35:49;11.23;;;7.00;;
37633;SDS011;32048;49.902;22.508;2023-09-19T09:38:24;8.82;;;7.43;;
37633;SDS011;32048;49.902;22.508;2023-09-19T09:40:55;9.05;;;7.90;;
37633;SDS011;32048;49.902;22.508;2023-09-19T09:43:31;10.50;;;8.05;;
37633;SDS011;32048;49.902;22.508;2023-09-19T09:46:18;8.68;;;7.03;;
37633;SDS011;32048;49.902;22.508;2023-09-19T09:48:56;9.65;;;7.00;;
37633;SDS011;32048;49.902;22.508;2023-09-19T09:51:41;7.15;;;6.43;;
37633;SDS011;32048;49.902;22.508;2023-09-19T09:54:13;8.05;;;6.47;;
37633;SDS011;32048;49.902;22.508;2023-09-19T09:56:57;8.50;;;6.35;;
37633;SDS011;32048;49.902;22.508;2023-09-19T10:02:41;6.85;;;5.78;;
37633;SDS011;32048;49.902;22.508;2023-09-19T10:07:40;6.40;;;5.65;;
37633;SDS011;32048;49.902;22.508;2023-09-19T10:10:10;8.77;;;5.95;;
37633;SDS011;32048;49.902;22.508;2023-09-19T10:12:48;8.50;;;5.00;;
37633;SDS011;32048;49.902;22.508;2023-09-19T10:15:17;6.10;;;4.93;;
37633;SDS011;32048;49.902;22.508;2023-09-19T10:17:47;6.78;;;4.72;;
37633;SDS011;32048;49.902;22.508;2023-09-19T10:20:16;6.97;;;4.53;;
37633;SDS011;32048;49.902;22.508;2023-09-19T10:22:59;6.60;;;4.00;;
37633;SDS011;32048;49.902;22.508;2023-09-19T10:25:28;4.75;;;3.53;;
37633;SDS011;32048;49.902;22.508;2023-09-19T10:27:57;5.20;;;4.03;;
37633;SDS011;32048;49.902;22.508;2023-09-19T10:30:30;5.95;;;4.50;;
37633;SDS011;32048;49.902;22.508;2023-09-19T10:33:01;6.93;;;4.75;;
37633;SDS011;32048;49.902;22.508;2023-09-19T10:35:30;8.43;;;5.07;;
37633;SDS011;32048;49.902;22.508;2023-09-19T10:40:27;10.13;;;4.78;;
37633;SDS011;32048;49.902;22.508;2023-09-19T10:43:01;5.32;;;4.28;;
37633;SDS011;32048;49.902;22.508;2023-09-19T10:45:33;6.53;;;4.75;;
37633;SDS011;32048;49.902;22.508;2023-09-19T10:48:02;6.13;;;4.82;;
37633;SDS011;32048;49.902;22.508;2023-09-19T10:50:41;8.07;;;5.90;;
37633;SDS011;32048;49.902;22.508;2023-09-19T10:53:12;8.95;;;5.97;;
37633;SDS011;32048;49.902;22.508;2023-09-19T10:55:47;8.15;;;7.25;;
37633;SDS011;32048;49.902;22.508;2023-09-19T10:58:25;11.00;;;7.53;;
37633;SDS011;32048;49.902;22.508;2023-09-19T11:00:56;11.25;;;7.40;;
37633;SDS011;32048;49.902;22.508;2023-09-19T11:03:39;10.90;;;7.68;;
37633;SDS011;32048;49.902;22.508;2023-09-19T11:06:19;9.35;;;7.80;;
37633;SDS011;32048;49.902;22.508;2023-09-19T11:11:49;9.00;;;7.97;;
37633;SDS011;32048;49.902;22.508;2023-09-19T11:30:36;14.07;;;11.30;;
37633;SDS011;32048;49.902;22.508;2023-09-19T11:33:41;13.35;;;11.48;;
37633;SDS011;32048;49.902;22.508;2023-09-19T11:36:10;17.58;;;11.93;;
37633;SDS011;32048;49.902;22.508;2023-09-19T11:43:49;17.42;;;14.35;;
37633;SDS011;32048;49.902;22.508;2023-09-19T11:46:23;15.98;;;13.82;;
37633;SDS011;32048;49.902;22.508;2023-09-19T11:48:52;17.98;;;14.75;;
37633;SDS011;32048;49.902;22.508;2023-09-19T11:51:22;14.60;;;13.10;;
37633;SDS011;32048;49.902;22.508;2023-09-19T11:53:54;19.30;;;14.55;;
37633;SDS011;32048;49.902;22.508;2023-09-19T11:56:24;17.45;;;14.13;;
37633;SDS011;32048;49.902;22.508;2023-09-19T11:58:55;18.13;;;14.93;;
37633;SDS011;32048;49.902;22.508;2023-09-19T12:03:53;16.85;;;15.05;;
37633;SDS011;32048;49.902;22.508;2023-09-19T12:06:24;19.95;;;15.23;;
37633;SDS011;32048;49.902;22.508;2023-09-19T12:08:52;16.05;;;13.50;;
37633;SDS011;32048;49.902;22.508;2023-09-19T12:11:21;16.20;;;14.48;;
37633;SDS011;32048;49.902;22.508;2023-09-19T12:16:18;18.48;;;13.20;;
37633;SDS011;32048;49.902;22.508;2023-09-19T12:18:50;15.45;;;13.75;;
37633;SDS011;32048;49.902;22.508;2023-09-19T12:21:24;17.60;;;13.38;;
37633;SDS011;32048;49.902;22.508;2023-09-19T12:24:13;16.38;;;14.30;;
37633;SDS011;32048;49.902;22.508;2023-09-19T12:26:43;15.52;;;12.65;;
37633;SDS011;32048;49.902;22.508;2023-09-19T12:29:12;15.45;;;13.45;;
37633;SDS011;32048;49.902;22.508;2023-09-19T12:31:56;23.50;;;12.05;;
37633;SDS011;32048;49.902;22.508;2023-09-19T12:34:25;12.93;;;11.60;;
37633;SDS011;32048;49.902;22.508;2023-09-19T12:39:50;13.43;;;11.63;;
37633;SDS011;32048;49.902;22.508;2023-09-19T12:42:23;14.48;;;10.85;;
37633;SDS011;32048;49.902;22.508;2023-09-19T12:47:28;12.13;;;10.77;;
37633;SDS011;32048;49.902;22.508;2023-09-19T12:50:05;11.43;;;9.77;;
37633;SDS011;32048;49.902;22.508;2023-09-19T12:52:49;13.05;;;9.32;;
37633;SDS011;32048;49.902;22.508;2023-09-19T12:58:03;13.43;;;9.82;;
37633;SDS011;32048;49.902;22.508;2023-09-19T13:00:40;10.25;;;8.43;;
37633;SDS011;32048;49.902;22.508;2023-09-19T13:03:09;10.55;;;9.23;;
37633;SDS011;32048;49.902;22.508;2023-09-19T13:05:53;10.07;;;8.43;;
37633;SDS011;32048;49.902;22.508;2023-09-19T13:08:25;12.05;;;9.98;;
37633;SDS011;32048;49.902;22.508;2023-09-19T13:13:42;10.55;;;8.00;;
37633;SDS011;32048;49.902;22.508;2023-09-19T13:16:16;9.55;;;7.90;;
37633;SDS011;32048;49.902;22.508;2023-09-19T13:18:49;10.40;;;7.70;;
37633;SDS011;32048;49.902;22.508;2023-09-19T13:21:31;9.43;;;7.85;;
37633;SDS011;32048;49.902;22.508;2023-09-19T13:24:19;11.40;;;6.82;;
37633;SDS011;32048;49.902;22.508;2023-09-19T13:26:53;7.90;;;6.72;;
37633;SDS011;32048;49.902;22.508;2023-09-19T13:29:20;8.88;;;7.35;;
37633;SDS011;32048;49.902;22.508;2023-09-19T13:34:15;11.38;;;10.25;;
37633;SDS011;32048;49.902;22.508;2023-09-19T13:36:44;11.95;;;9.05;;
37633;SDS011;32048;49.902;22.508;2023-09-19T13:39:14;12.02;;;8.48;;
37633;SDS011;32048;49.902;22.508;2023-09-19T13:44:16;7.50;;;5.72;;
37633;SDS011;32048;49.902;22.508;2023-09-19T13:46:44;7.00;;;5.70;;
37633;SDS011;32048;49.902;22.508;2023-09-19T13:51:40;8.10;;;5.47;;
37633;SDS011;32048;49.902;22.508;2023-09-19T13:54:11;6.43;;;5.43;;
37633;SDS011;32048;49.902;22.508;2023-09-19T13:56:41;8.90;;;5.43;;
37633;SDS011;32048;49.902;22.508;2023-09-19T13:59:08;7.13;;;5.45;;
37633;SDS011;32048;49.902;22.508;2023-09-19T14:01:35;6.53;;;5.28;;
37633;SDS011;32048;49.902;22.508;2023-09-19T14:04:02;7.03;;;5.32;;
37633;SDS011;32048;49.902;22.508;2023-09-19T14:06:29;6.57;;;5.50;;
37633;SDS011;32048;49.902;22.508;2023-09-19T14:08:56;6.45;;;4.93;;
37633;SDS011;32048;49.902;22.508;2023-09-19T14:11:23;6.20;;;4.60;;
37633;SDS011;32048;49.902;22.508;2023-09-19T14:13:50;6.90;;;4.63;;
37633;SDS011;32048;49.902;22.508;2023-09-19T14:16:21;5.75;;;4.63;;
37633;SDS011;32048;49.902;22.508;2023-09-19T14:18:51;6.47;;;4.97;;
37633;SDS011;32048;49.902;22.508;2023-09-19T14:21:19;6.38;;;4.95;;
37633;SDS011;32048;49.902;22.508;2023-09-19T14:23:46;6.30;;;4.68;;
37633;SDS011;32048;49.902;22.508;2023-09-19T14:26:13;8.05;;;4.85;;
37633;SDS011;32048;49.902;22.508;2023-09-19T14:28:40;7.88;;;5.80;;
37633;SDS011;32048;49.902;22.508;2023-09-19T14:31:08;6.45;;;5.03;;
37633;SDS011;32048;49.902;22.508;2023-09-19T14:33:37;6.22;;;4.60;;
37633;SDS011;32048;49.902;22.508;2023-09-19T14:36:06;8.90;;;6.07;;
37633;SDS011;32048;49.902;22.508;2023-09-19T14:38:36;7.97;;;5.68;;
37633;SDS011;32048;49.902;22.508;2023-09-19T14:41:04;7.88;;;6.28;;
37633;SDS011;32048;49.902;22.508;2023-09-19T14:43:32;7.65;;;6.57;;
37633;SDS011;32048;49.902;22.508;2023-09-19T14:46:03;9.85;;;6.93;;
37633;SDS011;32048;49.902;22.508;2023-09-19T14:48:31;10.77;;;7.05;;
37633;SDS011;32048;49.902;22.508;2023-09-19T14:51:02;7.15;;;5.68;;
37633;SDS011;32048;49.902;22.508;2023-09-19T14:53:33;11.48;;;6.60;;
37633;SDS011;32048;49.902;22.508;2023-09-19T14:56:03;7.85;;;6.28;;
37633;SDS011;32048;49.902;22.508;2023-09-19T14:58:31;8.27;;;6.57;;
37633;SDS011;32048;49.902;22.508;2023-09-19T15:03:37;7.95;;;6.20;;
37633;SDS011;32048;49.902;22.508;2023-09-19T15:06:10;8.75;;;6.68;;
37633;SDS011;32048;49.902;22.508;2023-09-19T15:08:41;11.35;;;6.22;;
37633;SDS011;32048;49.902;22.508;2023-09-19T15:11:14;10.80;;;6.13;;
37633;SDS011;32048;49.902;22.508;2023-09-19T15:13:44;8.32;;;6.70;;
37633;SDS011;32048;49.902;22.508;2023-09-19T15:16:12;8.05;;;5.90;;
37633;SDS011;32048;49.902;22.508;2023-09-19T15:18:41;8.45;;;6.25;;
37633;SDS011;32048;49.902;22.508;2023-09-19T15:21:09;9.40;;;6.07;;
37633;SDS011;32048;49.902;22.508;2023-09-19T15:23:38;8.27;;;6.85;;
37633;SDS011;32048;49.902;22.508;2023-09-19T15:26:08;11.57;;;7.72;;
37633;SDS011;32048;49.902;22.508;2023-09-19T15:28:38;10.75;;;7.45;;
37633;SDS011;32048;49.902;22.508;2023-09-19T15:31:07;11.10;;;7.15;;
37633;SDS011;32048;49.902;22.508;2023-09-19T15:33:36;9.85;;;7.45;;
37633;SDS011;32048;49.902;22.508;2023-09-19T15:36:05;12.90;;;7.85;;
37633;SDS011;32048;49.902;22.508;2023-09-19T15:41:38;12.38;;;9.00;;
37633;SDS011;32048;49.902;22.508;2023-09-19T15:44:11;15.18;;;8.52;;
37633;SDS011;32048;49.902;22.508;2023-09-19T15:46:41;11.25;;;8.18;;
37633;SDS011;32048;49.902;22.508;2023-09-19T15:49:08;13.30;;;8.80;;
37633;SDS011;32048;49.902;22.508;2023-09-19T15:51:35;10.88;;;8.35;;
37633;SDS011;32048;49.902;22.508;2023-09-19T15:54:12;10.98;;;8.48;;
37633;SDS011;32048;49.902;22.508;2023-09-19T15:56:42;11.25;;;9.50;;
37633;SDS011;32048;49.902;22.508;2023-09-19T15:59:10;11.23;;;8.77;;
37633;SDS011;32048;49.902;22.508;2023-09-19T16:01:42;13.95;;;9.77;;
37633;SDS011;32048;49.902;22.508;2023-09-19T16:04:10;12.00;;;8.82;;
37633;SDS011;32048;49.902;22.508;2023-09-19T16:06:39;11.38;;;8.93;;
37633;SDS011;32048;49.902;22.508;2023-09-19T16:09:08;13.30;;;9.83;;
37633;SDS011;32048;49.902;22.508;2023-09-19T16:14:04;11.77;;;9.20;;
37633;SDS011;32048;49.902;22.508;2023-09-19T16:16:33;10.68;;;8.40;;
37633;SDS011;32048;49.902;22.508;2023-09-19T16:19:02;12.32;;;9.00;;
37633;SDS011;32048;49.902;22.508;2023-09-19T16:21:32;10.80;;;8.40;;
37633;SDS011;32048;49.902;22.508;2023-09-19T16:24:03;10.73;;;8.25;;
37633;SDS011;32048;49.902;22.508;2023-09-19T16:26:33;10.02;;;8.85;;
37633;SDS011;32048;49.902;22.508;2023-09-19T16:29:00;11.15;;;9.15;;
37633;SDS011;32048;49.902;22.508;2023-09-19T16:31:28;11.93;;;8.43;;
37633;SDS011;32048;49.902;22.508;2023-09-19T16:36:26;11.82;;;9.00;;
37633;SDS011;32048;49.902;22.508;2023-09-19T16:38:54;11.02;;;9.55;;
37633;SDS011;32048;49.902;22.508;2023-09-19T16:41:22;13.40;;;10.05;;
37633;SDS011;32048;49.902;22.508;2023-09-19T16:43:50;12.55;;;10.60;;
37633;SDS011;32048;49.902;22.508;2023-09-19T16:46:17;15.98;;;11.57;;
37633;SDS011;32048;49.902;22.508;2023-09-19T16:48:46;11.77;;;9.77;;
37633;SDS011;32048;49.902;22.508;2023-09-19T16:51:18;13.60;;;9.90;;
37633;SDS011;32048;49.902;22.508;2023-09-19T16:53:46;23.88;;;10.15;;
37633;SDS011;32048;49.902;22.508;2023-09-19T16:56:16;10.27;;;9.10;;
37633;SDS011;32048;49.902;22.508;2023-09-19T17:01:15;9.98;;;8.85;;
37633;SDS011;32048;49.902;22.508;2023-09-19T17:03:45;10.57;;;8.07;;
37633;SDS011;32048;49.902;22.508;2023-09-19T17:06:13;8.13;;;7.20;;